Time;durP1;ratioP1;P1;durP2;ratioP2;P2;SDS_P1;SDS_P2;PMS_P1;PMS_P2;Temp;Humidity;BMP_temperature;BMP_pressure;BME280_temperature;BME280_humidity;BME280_pressure;Samples;Min_cycle;Max_cycle;Signal;HPM_P1;HPM_P2
2023/05/12 00:00:38;;;;;;;;;;;14.60;99.90;;;;;;5082015;28;19920;-70
2023/05/12 00:03:04;;;;;;;;;;;14.60;99.90;;;;;;5076991;28;19916;-69
2023/05/12 00:05:30;;;;;;;;;;;14.60;99.90;;;;;;5077490;28;19920;-70
2023/05/12 00:07:55;;;;;;;;;;;14.60;99.90;;;;;;5084235;28;19923;-70
2023/05/12 00:10:21;;;;;;;;;;;14.60;99.90;;;;;;5080002;28;19916;-69
2023/05/12 00:12:47;;;;;;;;;;;14.60;99.90;;;;;;5065718;28;19916;-69
2023/05/12 00:15:12;;;;;;;;;;;14.60;99.90;;;;;;5081383;28;19916;-70
2023/05/12 00:17:38;;;;;;;;;;;14.60;99.90;;;;;;5077189;28;19920;-70
2023/05/12 00:20:04;;;;;;;;;;;14.60;99.90;;;;;;5044877;28;19923;-70
2023/05/12 00:22:30;;;;;;;;;;;14.60;99.90;;;;;;5064661;28;19916;-70
2023/05/12 00:24:55;;;;;;;;;;;14.50;99.90;;;;;;5060779;28;20015;-69
2023/05/12 00:27:21;;;;;;;;;;;14.50;99.90;;;;;;5080866;28;19963;-69
2023/05/12 00:29:47;;;;;;;;;;;14.50;99.90;;;;;;5060677;28;19912;-69
2023/05/12 00:32:13;;;;;;;;;;;14.60;99.90;;;;;;5062128;28;20295;-69
2023/05/12 00:34:38;;;;;;;;;;;14.60;99.90;;;;;;5075577;28;19924;-69
2023/05/12 00:37:05;;;;;;;;;;;14.60;99.90;;;;;;5081324;28;19916;-69
2023/05/12 00:39:31;;;;;;;;;;;14.60;99.90;;;;;;5080270;28;19930;-69
2023/05/12 00:41:57;;;;;;;;;;;14.60;99.90;;;;;;5083818;28;19916;-69
2023/05/12 00:44:22;;;;;;;;;;;14.70;99.90;;;;;;5081174;28;20022;-69
2023/05/12 00:46:48;;;;;;;;;;;14.70;99.90;;;;;;5080173;28;20019;-68
2023/05/12 00:49:14;;;;;;;;;;;14.70;99.90;;;;;;5058861;28;20126;-69
2023/05/12 00:51:40;;;;;;;;;;;14.70;99.90;;;;;;5081242;28;19956;-69
2023/05/12 00:54:05;;;;;;;;;;;14.70;99.90;;;;;;5060508;28;20007;-69
2023/05/12 00:56:34;;;;;;;;;;;14.70;99.90;;;;;;5077319;28;19989;-70
2023/05/12 00:59:00;;;;;;;;;;;14.70;99.90;;;;;;5063074;28;19927;-69
2023/05/12 01:01:25;;;;;;;;;;;14.70;99.90;;;;;;5080440;28;19916;-70
2023/05/12 01:03:51;;;;;;;;;;;14.70;99.90;;;;;;5083392;28;19927;-69
2023/05/12 01:06:21;;;;;;;;;;;14.80;99.90;;;;;;5082164;28;19912;-70
2023/05/12 01:08:46;;;;;;;;;;;14.70;99.90;;;;;;5084027;28;19968;-69
2023/05/12 01:11:12;;;;;;;;;;;14.80;99.90;;;;;;5079669;28;19943;-69
2023/05/12 01:13:39;;;;;;;;;;;14.80;99.90;;;;;;5067724;28;19934;-69
2023/05/12 01:16:06;;;;;;;;;;;14.80;99.90;;;;;;5084698;28;19959;-69
2023/05/12 01:18:33;;;;;;;;;;;14.80;99.90;;;;;;5066135;28;19959;-69
2023/05/12 01:20:59;;;;;;;;;;;14.80;99.90;;;;;;5066681;28;19913;-70
2023/05/12 01:23:30;;;;;;;;;;;14.80;99.90;;;;;;5084867;28;19919;-69
2023/05/12 01:26:02;;;;;;;;;;;14.80;99.90;;;;;;5065292;28;20015;-69
2023/05/12 01:28:27;;;;;;;;;;;14.80;99.90;;;;;;5081129;28;19917;-69
2023/05/12 01:30:53;;;;;;;;;;;14.80;99.90;;;;;;5063784;28;19926;-69
2023/05/12 01:33:19;;;;;;;;;;;14.80;99.90;;;;;;5068368;28;19962;-69
2023/05/12 01:35:46;;;;;;;;;;;14.80;99.90;;;;;;5087388;28;19927;-70
2023/05/12 01:38:11;;;;;;;;;;;14.80;99.90;;;;;;5086525;28;19912;-69
2023/05/12 01:40:37;;;;;;;;;;;14.80;99.90;;;;;;5085914;28;20321;-69
2023/05/12 01:43:03;;;;;;;;;;;14.80;99.90;;;;;;5086611;28;19917;-69
2023/05/12 01:45:29;;;;;;;;;;;14.80;99.90;;;;;;5081732;28;19963;-69
2023/05/12 01:47:55;;;;;;;;;;;14.80;99.90;;;;;;5069288;28;19912;-69
2023/05/12 01:50:20;;;;;;;;;;;14.80;99.90;;;;;;5068690;28;20397;-69
2023/05/12 01:52:46;;;;;;;;;;;14.80;99.90;;;;;;5066055;28;20302;-69
2023/05/12 01:55:12;;;;;;;;;;;14.80;99.90;;;;;;5067997;28;19912;-69
2023/05/12 01:57:37;;;;;;;;;;;14.80;99.90;;;;;;5083508;28;20687;-69
2023/05/12 02:00:03;;;;;;;;;;;14.80;99.90;;;;;;5082572;28;19924;-69
2023/05/12 02:02:30;;;;;;;;;;;14.80;99.90;;;;;;5067162;28;20399;-69
2023/05/12 02:04:56;;;;;;;;;;;14.80;99.90;;;;;;5084731;28;19967;-69
2023/05/12 02:07:21;;;;;;;;;;;14.80;99.90;;;;;;5067616;28;19952;-70
2023/05/12 02:09:47;;;;;;;;;;;14.80;99.90;;;;;;5081867;28;19912;-70
2023/05/12 02:12:12;;;;;;;;;;;14.70;99.90;;;;;;5067009;28;19912;-70
2023/05/12 02:14:38;;;;;;;;;;;14.80;99.90;;;;;;5088626;28;19920;-69
2023/05/12 02:17:04;;;;;;;;;;;14.80;99.90;;;;;;5083062;28;20730;-70
2023/05/12 02:19:29;;;;;;;;;;;14.80;99.90;;;;;;5085909;28;19916;-70
2023/05/12 02:21:55;;;;;;;;;;;14.80;99.90;;;;;;5064116;28;19916;-69
2023/05/12 02:24:20;;;;;;;;;;;14.80;99.90;;;;;;5066336;28;19995;-69
2023/05/12 02:26:46;;;;;;;;;;;14.80;99.90;;;;;;5085269;28;19916;-69
2023/05/12 02:29:11;;;;;;;;;;;14.80;99.90;;;;;;5087952;28;19917;-69
2023/05/12 02:31:37;;;;;;;;;;;14.80;99.90;;;;;;5083924;28;20003;-68
2023/05/12 02:34:03;;;;;;;;;;;14.70;99.90;;;;;;5084717;28;20323;-69
2023/05/12 02:36:29;;;;;;;;;;;14.80;99.90;;;;;;5067031;28;19912;-69
2023/05/12 02:38:54;;;;;;;;;;;14.80;99.90;;;;;;5084093;28;20000;-69
2023/05/12 02:41:21;;;;;;;;;;;14.80;99.90;;;;;;5081965;28;19920;-69
2023/05/12 02:43:46;;;;;;;;;;;14.80;99.90;;;;;;5083908;28;19920;-69
2023/05/12 02:46:12;;;;;;;;;;;14.80;99.90;;;;;;5085698;28;20406;-69
2023/05/12 02:48:38;;;;;;;;;;;14.70;99.90;;;;;;5067204;28;19923;-69
2023/05/12 02:51:03;;;;;;;;;;;14.70;99.90;;;;;;5066448;28;19916;-70
2023/05/12 02:53:29;;;;;;;;;;;14.80;99.90;;;;;;5067427;28;19919;-70
2023/05/12 02:55:55;;;;;;;;;;;14.70;99.90;;;;;;5085519;28;19922;-70
2023/05/12 02:58:21;;;;;;;;;;;14.70;99.90;;;;;;5065369;28;19912;-70
2023/05/12 03:00:46;;;;;;;;;;;14.70;99.90;;;;;;5080533;28;19917;-70
2023/05/12 03:03:12;;;;;;;;;;;14.70;99.90;;;;;;5068179;28;20490;-71
2023/05/12 03:05:38;;;;;;;;;;;14.70;99.90;;;;;;5047120;28;19923;-71
2023/05/12 03:08:03;;;;;;;;;;;14.70;99.90;;;;;;5067085;28;19920;-69
2023/05/12 03:10:29;;;;;;;;;;;14.70;99.90;;;;;;5065030;28;19908;-69
2023/05/12 03:12:55;;;;;;;;;;;14.70;99.90;;;;;;5060502;28;20382;-70
2023/05/12 03:15:20;;;;;;;;;;;14.70;99.90;;;;;;5064321;28;19923;-69
2023/05/12 03:17:46;;;;;;;;;;;14.70;99.90;;;;;;5076877;28;20397;-70
2023/05/12 03:20:12;;;;;;;;;;;14.70;99.90;;;;;;5079192;28;19923;-70
2023/05/12 03:22:37;;;;;;;;;;;14.70;99.90;;;;;;5064963;28;19916;-69
2023/05/12 03:25:04;;;;;;;;;;;14.70;99.90;;;;;;5086138;28;19913;-69
2023/05/12 03:27:31;;;;;;;;;;;14.70;99.90;;;;;;5060971;28;20264;-71
2023/05/12 03:29:59;;;;;;;;;;;14.70;99.90;;;;;;5079712;28;19919;-69
2023/05/12 03:32:25;;;;;;;;;;;14.70;99.90;;;;;;5072522;28;19919;-69
2023/05/12 03:34:50;;;;;;;;;;;14.70;99.90;;;;;;5063681;28;19916;-70
2023/05/12 03:37:16;;;;;;;;;;;14.60;99.90;;;;;;5066174;28;19939;-69
2023/05/12 03:39:41;;;;;;;;;;;14.70;99.90;;;;;;5062413;28;20291;-70
2023/05/12 03:42:07;;;;;;;;;;;14.70;99.90;;;;;;5082266;28;19920;-70
2023/05/12 03:44:33;;;;;;;;;;;14.70;99.90;;;;;;5081381;28;20035;-70
2023/05/12 03:46:58;;;;;;;;;;;14.70;99.90;;;;;;5079938;28;19928;-69
2023/05/12 03:49:24;;;;;;;;;;;14.70;99.90;;;;;;5081189;28;19920;-70
2023/05/12 03:51:49;;;;;;;;;;;14.70;99.90;;;;;;5064050;28;20451;-70
2023/05/12 03:54:15;;;;;;;;;;;14.70;99.90;;;;;;5066797;28;20372;-70
2023/05/12 03:56:41;;;;;;;;;;;14.70;99.90;;;;;;5080684;28;19915;-70
2023/05/12 03:59:06;;;;;;;;;;;14.70;99.90;;;;;;5063282;28;20314;-70
2023/05/12 04:01:32;;;;;;;;;;;14.70;99.90;;;;;;5059112;28;19927;-70
2023/05/12 04:03:57;;;;;;;;;;;14.70;99.90;;;;;;5058588;28;19920;-70
2023/05/12 04:06:23;;;;;;;;;;;14.70;99.90;;;;;;5086412;28;20016;-70
2023/05/12 04:08:48;;;;;;;;;;;14.70;99.90;;;;;;5082623;28;19912;-69
2023/05/12 04:11:14;;;;;;;;;;;14.70;99.90;;;;;;5077975;28;19913;-70
2023/05/12 04:13:40;;;;;;;;;;;14.70;99.90;;;;;;5060837;28;19923;-70
2023/05/12 04:16:05;;;;;;;;;;;14.70;99.90;;;;;;5082373;28;19916;-69
2023/05/12 04:18:31;;;;;;;;;;;14.70;99.90;;;;;;5061312;28;19923;-70
2023/05/12 04:20:56;;;;;;;;;;;14.70;99.90;;;;;;5081189;28;19916;-70
2023/05/12 04:23:22;;;;;;;;;;;14.70;99.90;;;;;;5081874;28;19912;-70
2023/05/12 04:25:48;;;;;;;;;;;14.70;99.90;;;;;;5062763;28;19954;-69
2023/05/12 04:28:13;;;;;;;;;;;14.80;99.90;;;;;;5066801;28;19924;-70
2023/05/12 04:30:40;;;;;;;;;;;14.80;99.90;;;;;;5063270;28;19920;-70
2023/05/12 04:33:06;;;;;;;;;;;14.80;99.90;;;;;;5073578;28;19912;-70
2023/05/12 04:35:32;;;;;;;;;;;14.80;99.90;;;;;;5082395;28;20007;-69
2023/05/12 04:38:00;;;;;;;;;;;14.80;99.90;;;;;;5064761;28;20026;-70
2023/05/12 04:40:26;;;;;;;;;;;14.80;99.90;;;;;;5048154;28;19924;-69
2023/05/12 04:42:51;;;;;;;;;;;14.80;99.90;;;;;;5079550;28;20007;-70
2023/05/12 04:45:17;;;;;;;;;;;14.90;99.90;;;;;;5058778;28;19916;-70
2023/05/12 04:47:42;;;;;;;;;;;14.90;99.90;;;;;;5078865;28;19918;-71
2023/05/12 04:50:09;;;;;;;;;;;14.90;99.90;;;;;;5057266;28;19973;-70
2023/05/12 04:52:35;;;;;;;;;;;14.90;99.90;;;;;;5061549;28;19922;-70
2023/05/12 04:55:01;;;;;;;;;;;14.90;99.90;;;;;;5078655;28;19920;-70
2023/05/12 04:57:26;;;;;;;;;;;14.90;99.90;;;;;;5082203;28;20281;-70
2023/05/12 04:59:52;;;;;;;;;;;14.90;99.90;;;;;;5061998;28;20447;-70
2023/05/12 05:02:18;;;;;;;;;;;14.90;99.90;;;;;;5045848;28;19970;-70
2023/05/12 05:04:43;;;;;;;;;;;15.00;99.90;;;;;;5088231;28;19955;-70
2023/05/12 05:07:09;;;;;;;;;;;15.00;99.90;;;;;;5069922;28;19920;-70
2023/05/12 05:09:35;;;;;;;;;;;15.10;99.90;;;;;;5075182;28;19916;-70
2023/05/12 05:12:00;;;;;;;;;;;15.00;99.90;;;;;;5082096;28;19990;-70
2023/05/12 05:14:26;;;;;;;;;;;15.10;99.90;;;;;;5077329;28;20469;-70
2023/05/12 05:16:52;;;;;;;;;;;15.10;99.90;;;;;;5061946;28;19998;-70
2023/05/12 05:19:20;;;;;;;;;;;15.10;99.90;;;;;;5076921;28;19920;-70
2023/05/12 05:21:46;;;;;;;;;;;15.50;99.90;;;;;;5075522;28;20415;-70
2023/05/12 05:24:11;;;;;;;;;;;15.70;99.90;;;;;;5082212;28;19952;-70
2023/05/12 05:26:37;;;;;;;;;;;15.90;99.90;;;;;;5062896;28;19916;-71
2023/05/12 05:29:03;;;;;;;;;;;16.10;99.90;;;;;;5085110;28;19942;-70
2023/05/12 05:31:29;;;;;;;;;;;16.10;99.90;;;;;;5062422;28;19967;-70
2023/05/12 05:33:54;;;;;;;;;;;16.20;99.90;;;;;;5079081;28;20643;-71
2023/05/12 05:36:25;;;;;;;;;;;16.10;99.90;;;;;;5047930;28;19916;-70
2023/05/12 05:38:50;;;;;;;;;;;16.20;99.90;;;;;;5067798;28;20454;-71
2023/05/12 05:41:16;;;;;;;;;;;16.20;99.90;;;;;;5086023;28;19916;-70
2023/05/12 05:43:42;;;;;;;;;;;16.00;99.90;;;;;;5076125;28;19912;-70
2023/05/12 05:46:07;;;;;;;;;;;16.00;99.90;;;;;;5056221;28;19922;-71
2023/05/12 05:48:35;;;;;;;;;;;15.90;99.90;;;;;;5072922;28;20014;-72
2023/05/12 05:51:00;;;;;;;;;;;15.80;99.90;;;;;;5084928;28;20378;-72
2023/05/12 05:53:26;;;;;;;;;;;15.80;99.90;;;;;;5083769;28;19916;-72
2023/05/12 05:55:52;;;;;;;;;;;15.80;99.90;;;;;;5067832;28;19916;-72
2023/05/12 05:58:18;;;;;;;;;;;15.80;99.90;;;;;;5070206;28;20022;-71
2023/05/12 06:00:43;;;;;;;;;;;15.80;99.90;;;;;;5078554;28;19938;-72
2023/05/12 06:03:09;;;;;;;;;;;15.80;99.90;;;;;;5087772;28;20422;-72
2023/05/12 06:05:35;;;;;;;;;;;15.90;99.90;;;;;;5069571;28;20699;-72
2023/05/12 06:08:00;;;;;;;;;;;15.90;99.90;;;;;;5085012;28;19969;-72
2023/05/12 06:10:26;;;;;;;;;;;16.00;99.90;;;;;;5079356;28;19919;-72
2023/05/12 06:12:52;;;;;;;;;;;16.00;99.90;;;;;;5066001;28;19912;-72
2023/05/12 06:15:17;;;;;;;;;;;16.00;99.90;;;;;;5082039;28;20421;-72
2023/05/12 06:17:43;;;;;;;;;;;16.10;99.90;;;;;;5084409;28;19916;-72
2023/05/12 06:20:09;;;;;;;;;;;16.10;99.90;;;;;;5087218;28;20518;-73
2023/05/12 06:22:35;;;;;;;;;;;16.10;99.90;;;;;;5068564;28;19934;-72
2023/05/12 06:25:01;;;;;;;;;;;16.10;99.90;;;;;;5071231;28;19912;-72
2023/05/12 06:27:26;;;;;;;;;;;16.20;99.90;;;;;;5052747;28;20540;-70
2023/05/12 06:29:52;;;;;;;;;;;16.30;99.90;;;;;;5066720;28;19916;-70
2023/05/12 06:32:18;;;;;;;;;;;16.30;99.90;;;;;;5081472;28;19916;-71
2023/05/12 06:34:43;;;;;;;;;;;16.40;99.90;;;;;;5067684;28;19970;-69
2023/05/12 06:37:09;;;;;;;;;;;16.40;99.90;;;;;;5081697;28;19913;-69
2023/05/12 06:39:35;;;;;;;;;;;16.40;99.90;;;;;;5066317;28;20818;-69
2023/05/12 06:42:00;;;;;;;;;;;16.50;99.90;;;;;;5066574;28;19956;-69
2023/05/12 06:44:26;;;;;;;;;;;16.50;99.90;;;;;;5072215;28;19947;-70
2023/05/12 06:46:52;;;;;;;;;;;16.60;99.90;;;;;;5056095;28;19960;-70
2023/05/12 06:49:17;;;;;;;;;;;16.60;99.90;;;;;;5085704;28;19923;-70
2023/05/12 06:51:43;;;;;;;;;;;16.60;99.90;;;;;;5063203;28;20349;-70
2023/05/12 06:54:09;;;;;;;;;;;16.60;99.90;;;;;;5076463;28;20498;-70
2023/05/12 06:56:34;;;;;;;;;;;16.60;99.90;;;;;;5081160;28;19916;-70
2023/05/12 06:59:01;;;;;;;;;;;16.60;99.90;;;;;;5079757;28;19916;-70
2023/05/12 07:01:27;;;;;;;;;;;16.70;99.90;;;;;;5055167;28;20338;-71
2023/05/12 07:03:53;;;;;;;;;;;16.70;99.90;;;;;;5081843;28;19920;-70
2023/05/12 07:06:19;;;;;;;;;;;16.80;99.90;;;;;;5085064;28;19923;-70
2023/05/12 07:08:45;;;;;;;;;;;16.90;99.90;;;;;;5085428;28;19912;-70
2023/05/12 07:11:10;;;;;;;;;;;17.00;99.90;;;;;;5080049;28;20004;-70
2023/05/12 07:13:37;;;;;;;;;;;17.00;99.90;;;;;;5075795;28;19918;-70
2023/05/12 07:16:02;;;;;;;;;;;17.00;99.90;;;;;;5077380;28;20031;-69
2023/05/12 07:18:28;;;;;;;;;;;17.00;99.90;;;;;;5080686;28;20443;-70
2023/05/12 07:20:57;;;;;;;;;;;17.10;99.90;;;;;;5073977;28;20221;-70
2023/05/12 07:23:22;;;;;;;;;;;17.20;99.90;;;;;;5084216;28;19919;-69
2023/05/12 07:25:48;;;;;;;;;;;17.20;99.90;;;;;;5060897;28;19968;-69
2023/05/12 07:28:14;;;;;;;;;;;17.30;99.90;;;;;;5080798;28;20367;-70
2023/05/12 07:30:39;;;;;;;;;;;17.40;99.90;;;;;;5065846;28;19912;-69
2023/05/12 07:33:05;;;;;;;;;;;17.50;99.90;;;;;;5075782;28;19923;-70
2023/05/12 07:35:31;;;;;;;;;;;17.60;99.90;;;;;;5059883;28;19912;-70
2023/05/12 07:37:56;;;;;;;;;;;17.60;99.90;;;;;;5081974;28;20387;-69
2023/05/12 07:40:22;;;;;;;;;;;17.70;99.90;;;;;;5063236;28;19988;-70
2023/05/12 07:42:48;;;;;;;;;;;17.80;99.30;;;;;;5076182;28;20404;-69
2023/05/12 07:45:21;;;;;;;;;;;17.70;99.60;;;;;;5076324;28;20378;-70
2023/05/12 07:47:47;;;;;;;;;;;17.80;99.20;;;;;;5060616;28;19927;-70
2023/05/12 07:50:13;;;;;;;;;;;17.80;98.80;;;;;;5076792;28;19919;-70
2023/05/12 07:52:44;;;;;;;;;;;17.80;98.50;;;;;;5078842;28;20291;-70
2023/05/12 07:55:10;;;;;;;;;;;17.80;98.40;;;;;;5063462;28;20279;-69
2023/05/12 07:57:36;;;;;;;;;;;17.80;97.50;;;;;;5066879;28;19916;-69
2023/05/12 08:00:03;;;;;;;;;;;17.80;98.00;;;;;;5067041;28;19965;-69
2023/05/12 08:02:29;;;;;;;;;;;17.90;97.90;;;;;;5083485;28;19916;-69
2023/05/12 08:04:54;;;;;;;;;;;18.00;97.70;;;;;;5060756;28;19927;-69
2023/05/12 08:07:20;;;;;;;;;;;18.00;98.20;;;;;;5081030;28;19920;-69
2023/05/12 08:09:46;;;;;;;;;;;18.10;98.10;;;;;;5046910;28;19966;-69
2023/05/12 08:12:11;;;;;;;;;;;18.20;97.90;;;;;;5064283;28;20368;-69
2023/05/12 08:14:37;;;;;;;;;;;18.30;98.30;;;;;;5062940;28;21392;-69
2023/05/12 08:17:04;;;;;;;;;;;18.40;98.20;;;;;;5060739;28;19928;-69
2023/05/12 08:19:29;;;;;;;;;;;18.40;97.90;;;;;;5078358;28;19931;-70
2023/05/12 08:21:55;;;;;;;;;;;18.60;97.90;;;;;;5067084;28;20296;-69
2023/05/12 08:24:20;;;;;;;;;;;18.70;97.20;;;;;;5085893;28;20357;-69
2023/05/12 08:26:46;;;;;;;;;;;18.70;96.90;;;;;;5076872;28;20325;-69
2023/05/12 08:29:12;;;;;;;;;;;18.80;97.30;;;;;;5063672;28;20381;-70
2023/05/12 08:31:37;;;;;;;;;;;19.00;97.20;;;;;;5078700;28;19946;-70
2023/05/12 08:34:03;;;;;;;;;;;19.00;96.60;;;;;;5077857;28;19912;-69
2023/05/12 08:36:29;;;;;;;;;;;19.10;96.40;;;;;;5081957;28;19920;-70
2023/05/12 08:38:55;;;;;;;;;;;19.20;96.40;;;;;;5085034;28;19936;-70
2023/05/12 08:41:31;;;;;;;;;;;19.30;95.90;;;;;;5081661;28;19916;-70
2023/05/12 08:43:57;;;;;;;;;;;19.30;95.90;;;;;;5084357;28;20364;-69
2023/05/12 08:46:24;;;;;;;;;;;19.30;95.80;;;;;;5058126;28;19916;-69
2023/05/12 08:48:51;;;;;;;;;;;19.30;95.00;;;;;;5079701;28;19939;-70
2023/05/12 08:51:17;;;;;;;;;;;19.20;94.70;;;;;;5074074;28;19916;-69
2023/05/12 08:53:45;;;;;;;;;;;19.10;93.80;;;;;;5079790;28;20276;-70
2023/05/12 08:56:12;;;;;;;;;;;19.10;94.40;;;;;;5081588;28;19923;-70
2023/05/12 08:58:38;;;;;;;;;;;19.20;92.60;;;;;;5075687;28;20006;-70
2023/05/12 09:01:05;;;;;;;;;;;19.10;92.20;;;;;;5082151;28;19939;-70
2023/05/12 09:03:30;;;;;;;;;;;19.10;93.90;;;;;;5061132;28;19920;-71
2023/05/12 09:05:57;;;;;;;;;;;19.00;94.00;;;;;;5054269;28;19923;-70
2023/05/12 09:08:27;;;;;;;;;;;19.10;93.50;;;;;;5059971;28;20073;-70
2023/05/12 09:10:55;;;;;;;;;;;19.20;93.20;;;;;;5082839;28;19916;-70
2023/05/12 09:13:28;;;;;;;;;;;19.20;93.80;;;;;;5080246;28;19916;-70
2023/05/12 09:15:55;;;;;;;;;;;19.30;91.00;;;;;;5081581;28;20367;-69
2023/05/12 09:18:21;;;;;;;;;;;19.30;91.60;;;;;;5081835;28;19920;-70
2023/05/12 09:20:47;;;;;;;;;;;19.40;91.30;;;;;;5061358;28;19927;-70
2023/05/12 09:23:17;;;;;;;;;;;19.40;91.50;;;;;;5077153;28;19935;-70
2023/05/12 09:25:42;;;;;;;;;;;19.40;90.60;;;;;;5041468;28;20007;-70
2023/05/12 09:28:08;;;;;;;;;;;19.60;85.60;;;;;;5071404;28;20022;-71
2023/05/12 09:30:37;;;;;;;;;;;19.60;85.20;;;;;;5081349;28;20442;-71
2023/05/12 09:33:12;;;;;;;;;;;19.60;84.10;;;;;;5085952;28;20003;-70
2023/05/12 09:35:43;;;;;;;;;;;19.60;86.00;;;;;;5066354;28;19935;-70
2023/05/12 09:38:09;;;;;;;;;;;19.60;83.30;;;;;;5086213;28;19923;-71
2023/05/12 09:40:35;;;;;;;;;;;19.90;78.20;;;;;;5084534;28;20513;-70
2023/05/12 09:43:01;;;;;;;;;;;19.90;76.80;;;;;;5065946;28;19995;-70
2023/05/12 09:45:27;;;;;;;;;;;20.00;79.00;;;;;;5075919;28;20007;-70
2023/05/12 09:47:53;;;;;;;;;;;20.10;74.80;;;;;;5066964;28;20014;-70
2023/05/12 09:50:19;;;;;;;;;;;20.10;77.10;;;;;;5086192;28;19920;-70
2023/05/12 09:52:44;;;;;;;;;;;20.10;77.40;;;;;;5085199;28;19912;-71
2023/05/12 09:55:11;;;;;;;;;;;20.20;75.40;;;;;;5081475;28;19957;-72
2023/05/12 09:57:41;;;;;;;;;;;20.20;74.70;;;;;;5080111;28;19935;-70
2023/05/12 10:00:07;;;;;;;;;;;20.20;77.50;;;;;;5077814;28;19916;-71
2023/05/12 10:02:33;;;;;;;;;;;20.40;74.30;;;;;;5077669;28;19931;-70
2023/05/12 10:05:01;;;;;;;;;;;20.50;74.60;;;;;;5086813;28;19920;-69
2023/05/12 10:07:28;;;;;;;;;;;20.60;72.40;;;;;;5063989;28;19929;-70
2023/05/12 10:09:55;;;;;;;;;;;20.50;72.10;;;;;;5085176;28;19944;-70
2023/05/12 10:12:21;;;;;;;;;;;20.50;75.00;;;;;;5078043;28;19963;-70
2023/05/12 10:14:48;;;;;;;;;;;20.50;72.10;;;;;;5057771;28;19920;-70
2023/05/12 10:17:14;;;;;;;;;;;20.30;72.50;;;;;;5063097;28;19912;-71
2023/05/12 10:19:40;;;;;;;;;;;20.20;76.50;;;;;;5082853;28;19923;-70
2023/05/12 10:22:08;;;;;;;;;;;20.20;74.80;;;;;;5077728;28;19912;-70
2023/05/12 10:24:35;;;;;;;;;;;20.30;69.80;;;;;;5063819;28;19919;-70
2023/05/12 10:27:04;;;;;;;;;;;20.30;71.30;;;;;;5065603;28;19912;-71
2023/05/12 10:29:31;;;;;;;;;;;20.20;70.00;;;;;;5065382;28;19955;-72
2023/05/12 10:31:58;;;;;;;;;;;20.20;70.90;;;;;;5086836;28;19956;-69
2023/05/12 10:34:28;;;;;;;;;;;20.30;71.40;;;;;;5079623;28;20418;-70
2023/05/12 10:36:57;;;;;;;;;;;20.40;70.50;;;;;;5090777;28;19923;-70
2023/05/12 10:39:29;;;;;;;;;;;20.50;69.80;;;;;;5093401;28;19947;-70
2023/05/12 10:42:08;;;;;;;;;;;20.60;68.50;;;;;;5048221;28;19989;-70
2023/05/12 10:44:37;;;;;;;;;;;20.70;69.40;;;;;;5066046;28;19912;-70
2023/05/12 10:47:12;;;;;;;;;;;20.90;69.70;;;;;;5072925;28;19916;-70
2023/05/12 10:49:41;;;;;;;;;;;21.20;66.30;;;;;;5079223;28;20303;-72
2023/05/12 10:52:12;;;;;;;;;;;21.20;64.70;;;;;;5064026;28;19917;-74
2023/05/12 10:54:43;;;;;;;;;;;21.10;63.70;;;;;;5049925;28;20006;-74
2023/05/12 10:57:19;;;;;;;;;;;21.10;62.80;;;;;;5074664;28;19970;-71
2023/05/12 10:59:48;;;;;;;;;;;21.20;63.80;;;;;;5078772;28;19977;-70
2023/05/12 11:02:15;;;;;;;;;;;21.40;64.20;;;;;;5071178;28;20392;-71
2023/05/12 11:04:41;;;;;;;;;;;21.50;58.70;;;;;;5059675;28;19978;-72
2023/05/12 11:07:08;;;;;;;;;;;21.30;58.30;;;;;;5073906;28;20534;-76
2023/05/12 11:09:37;;;;;;;;;;;21.40;60.10;;;;;;5036571;28;20700;-75
2023/05/12 11:12:05;;;;;;;;;;;21.90;60.50;;;;;;5051820;28;19916;-76
2023/05/12 11:14:30;;;;;;;;;;;22.80;59.50;;;;;;5070135;28;19951;-75
2023/05/12 11:16:56;;;;;;;;;;;24.00;56.40;;;;;;5069222;28;20018;-75
2023/05/12 11:19:22;;;;;;;;;;;25.50;54.20;;;;;;5051811;28;19927;-75
2023/05/12 11:21:47;;;;;;;;;;;27.10;53.20;;;;;;5052377;28;19955;-72
2023/05/12 11:24:15;;;;;;;;;;;27.90;48.80;;;;;;5055480;28;19920;-72
2023/05/12 11:26:41;;;;;;;;;;;28.40;45.60;;;;;;5059620;28;20488;-71
2023/05/12 11:29:07;;;;;;;;;;;27.90;45.50;;;;;;5079455;28;19912;-74
2023/05/12 11:31:32;;;;;;;;;;;27.70;45.70;;;;;;5085818;28;20360;-74
2023/05/12 11:34:06;;;;;;;;;;;29.00;45.70;;;;;;5054393;28;20443;-73
2023/05/12 11:36:35;;;;;;;;;;;31.10;43.80;;;;;;5060234;28;20655;-73
2023/05/12 11:39:02;;;;;;;;;;;31.60;39.80;;;;;;5058351;28;19925;-73
2023/05/12 11:41:27;;;;;;;;;;;31.70;37.80;;;;;;5078773;28;19912;-72
2023/05/12 11:43:53;;;;;;;;;;;31.00;37.80;;;;;;5079607;28;19943;-73
2023/05/12 11:46:23;;;;;;;;;;;28.50;39.20;;;;;;5061230;28;20296;-76
2023/05/12 11:48:53;;;;;;;;;;;28.10;40.80;;;;;;5063229;28;20003;-73
2023/05/12 11:51:19;;;;;;;;;;;27.60;41.30;;;;;;5078070;28;19920;-73
2023/05/12 11:53:45;;;;;;;;;;;27.80;41.90;;;;;;5057228;28;20432;-73
2023/05/12 11:56:18;;;;;;;;;;;27.70;42.40;;;;;;5083418;28;19919;-74
2023/05/12 11:58:54;;;;;;;;;;;27.30;43.20;;;;;;5067762;28;20314;-72
2023/05/12 12:01:22;;;;;;;;;;;26.60;43.40;;;;;;5081786;28;19915;-71
2023/05/12 12:03:49;;;;;;;;;;;26.30;43.30;;;;;;5069926;28;20383;-71
2023/05/12 12:06:15;;;;;;;;;;;25.90;44.00;;;;;;5054276;28;20470;-72
2023/05/12 12:08:54;;;;;;;;;;;25.10;44.70;;;;;;5061135;28;19956;-72
2023/05/12 12:11:20;;;;;;;;;;;24.80;45.40;;;;;;5061368;28;19916;-72
2023/05/12 12:14:00;;;;;;;;;;;25.30;44.60;;;;;;5075808;28;20387;-73
2023/05/12 12:16:26;;;;;;;;;;;24.90;44.90;;;;;;5062359;28;19916;-73
2023/05/12 12:18:52;;;;;;;;;;;24.50;44.20;;;;;;5062607;28;19973;-73
2023/05/12 12:21:18;;;;;;;;;;;24.10;43.30;;;;;;5064427;28;20009;-72
2023/05/12 12:23:44;;;;;;;;;;;24.80;45.20;;;;;;5074802;28;19916;-73
2023/05/12 12:26:10;;;;;;;;;;;25.60;44.80;;;;;;5080241;28;19923;-73
2023/05/12 12:28:36;;;;;;;;;;;26.30;43.20;;;;;;5082483;28;20380;-73
2023/05/12 12:31:01;;;;;;;;;;;26.80;44.00;;;;;;5081446;28;19919;-73
2023/05/12 12:33:27;;;;;;;;;;;27.10;40.70;;;;;;5075775;28;19920;-73
2023/05/12 12:35:53;;;;;;;;;;;27.90;42.20;;;;;;5060116;28;19923;-72
2023/05/12 12:38:19;;;;;;;;;;;28.30;39.50;;;;;;5077446;28;20026;-76
2023/05/12 12:40:46;;;;;;;;;;;29.00;39.00;;;;;;5073144;28;20069;-73
2023/05/12 12:43:12;;;;;;;;;;;29.30;37.50;;;;;;5064872;28;19916;-74
2023/05/12 12:45:39;;;;;;;;;;;29.80;37.70;;;;;;5081968;28;19938;-72
2023/05/12 12:48:07;;;;;;;;;;;30.20;37.90;;;;;;5082211;28;19920;-70
2023/05/12 12:50:34;;;;;;;;;;;30.70;35.90;;;;;;5060637;28;20541;-73
2023/05/12 12:53:00;;;;;;;;;;;30.40;34.90;;;;;;5082041;28;19916;-71
2023/05/12 12:55:27;;;;;;;;;;;31.50;36.10;;;;;;5054854;28;20019;-71
2023/05/12 12:57:53;;;;;;;;;;;32.00;35.30;;;;;;5076343;28;19923;-71
2023/05/12 13:00:22;;;;;;;;;;;32.00;34.00;;;;;;5079633;28;19960;-72
2023/05/12 13:02:48;;;;;;;;;;;31.40;33.90;;;;;;5073703;28;19912;-73
2023/05/12 13:05:15;;;;;;;;;;;30.20;34.60;;;;;;5084237;28;19924;-72
2023/05/12 13:07:40;;;;;;;;;;;29.80;36.10;;;;;;5085927;28;19912;-75
2023/05/12 13:10:06;;;;;;;;;;;30.40;36.70;;;;;;5086306;28;20297;-73
2023/05/12 13:12:32;;;;;;;;;;;31.00;33.90;;;;;;5079943;28;19916;-71
2023/05/12 13:14:59;;;;;;;;;;;31.50;34.00;;;;;;5084433;28;19916;-72
2023/05/12 13:17:25;;;;;;;;;;;32.70;33.20;;;;;;5078458;28;19912;-73
2023/05/12 13:19:54;;;;;;;;;;;32.40;32.90;;;;;;5059196;28;19936;-72
2023/05/12 13:22:21;;;;;;;;;;;32.40;33.80;;;;;;5080949;28;20482;-72
2023/05/12 13:24:46;;;;;;;;;;;33.60;32.20;;;;;;5072500;28;20002;-74
2023/05/12 13:27:12;;;;;;;;;;;34.20;32.10;;;;;;5045078;28;20368;-75
2023/05/12 13:29:38;;;;;;;;;;;34.60;30.80;;;;;;5069760;28;19912;-74
2023/05/12 13:32:04;;;;;;;;;;;33.80;30.70;;;;;;5065048;28;19923;-73
2023/05/12 13:34:29;;;;;;;;;;;34.40;30.80;;;;;;5085320;28;19916;-76
2023/05/12 13:36:55;;;;;;;;;;;35.10;30.60;;;;;;5086063;28;19912;-74
2023/05/12 13:39:21;;;;;;;;;;;34.80;30.30;;;;;;5078746;28;19978;-74
2023/05/12 13:41:46;;;;;;;;;;;35.40;30.30;;;;;;5069363;28;19916;-75
2023/05/12 13:44:12;;;;;;;;;;;34.70;30.20;;;;;;5059681;28;19927;-76
2023/05/12 13:46:37;;;;;;;;;;;34.50;30.40;;;;;;5052425;28;20506;-74
2023/05/12 13:49:03;;;;;;;;;;;34.40;30.00;;;;;;5064319;28;19965;-74
2023/05/12 13:51:31;;;;;;;;;;;34.60;30.40;;;;;;5082846;28;20380;-78
2023/05/12 13:53:57;;;;;;;;;;;35.20;30.20;;;;;;5077345;28;19959;-74
2023/05/12 13:56:24;;;;;;;;;;;34.90;29.50;;;;;;5082303;28;19935;-74
2023/05/12 13:58:50;;;;;;;;;;;34.00;29.20;;;;;;5064887;28;20004;-74
2023/05/12 14:01:15;;;;;;;;;;;33.80;29.90;;;;;;5059524;28;19925;-75
2023/05/12 14:03:41;;;;;;;;;;;34.10;29.50;;;;;;5082196;28;19924;-74
2023/05/12 14:06:07;;;;;;;;;;;33.70;29.40;;;;;;5082751;28;20249;-75
2023/05/12 14:08:33;;;;;;;;;;;32.30;29.90;;;;;;5052303;28;19920;-74
2023/05/12 14:10:59;;;;;;;;;;;31.40;30.60;;;;;;5032913;28;19985;-72